Venice, Florida
Current Conditions -  °F | °C
As of 1:53 PM on Thursday 23 Oct 2014 (Local Time) from KSRQ Reporting Station
Clear Clear  
Wind Chill: 82°   Ceiling: Unl
Heat Index: 83°   Visibility: 10mi
Dew Point: 62°   Wind: 9mph
Humidity: 51%   Direction: 60°ENE
Pressure: 29.93"   Gusts: NA
Location:  27.1°N, 82.45°W
Report Text: KSRQ 231753Z AUTO 06008KT 10SM CLR 28/17 A2993 RMK AO2 SLP133 T02780167 10283 20178 58014
Loading
Personal Weather Stations






























Interactive Weather Map
Tropical Storm Tracking
New forecast layout! Learn more

10-Day Weather Forecast

Advertisements
Track Severe Weather on mobile